sensor_id;sensor_type;location;lat;lon;timestamp;pressure;altitude;pressure_sealevel;temperature
67353;BMP180;54238;52.278;21.056;2023-04-25T00:00:03;99211.20;;;13.96
67353;BMP180;54238;52.278;21.056;2023-04-25T00:02:57;99202.40;;;13.90
67353;BMP180;54238;52.278;21.056;2023-04-25T00:05:27;99206.80;;;13.90
67353;BMP180;54238;52.278;21.056;2023-04-25T00:07:57;99209.20;;;13.90
67353;BMP180;54238;52.278;21.056;2023-04-25T00:10:25;99206.80;;;13.90
67353;BMP180;54238;52.278;21.056;2023-04-25T00:12:52;99205.40;;;13.90
67353;BMP180;54238;52.278;21.056;2023-04-25T00:15:23;99201.60;;;13.88
67353;BMP180;54238;52.278;21.056;2023-04-25T00:17:51;99204.40;;;13.84
67353;BMP180;54238;52.278;21.056;2023-04-25T00:20:22;99205.20;;;13.84
67353;BMP180;54238;52.278;21.056;2023-04-25T00:22:51;99205.00;;;13.80
67353;BMP180;54238;52.278;21.056;2023-04-25T00:25:31;99205.20;;;13.80
67353;BMP180;54238;52.278;21.056;2023-04-25T00:27:58;99203.00;;;13.80
67353;BMP180;54238;52.278;21.056;2023-04-25T00:31:02;99204.40;;;13.70
67353;BMP180;54238;52.278;21.056;2023-04-25T00:33:29;99207.00;;;13.70
67353;BMP180;54238;52.278;21.056;2023-04-25T00:35:59;99206.40;;;13.70
67353;BMP180;54238;52.278;21.056;2023-04-25T00:38:30;99204.80;;;13.70
67353;BMP180;54238;52.278;21.056;2023-04-25T00:40:57;99207.00;;;13.70
67353;BMP180;54238;52.278;21.056;2023-04-25T00:43:29;99206.20;;;13.68
67353;BMP180;54238;52.278;21.056;2023-04-25T00:46:00;99206.00;;;13.62
67353;BMP180;54238;52.278;21.056;2023-04-25T00:48:30;99206.40;;;13.60
67353;BMP180;54238;52.278;21.056;2023-04-25T00:50:59;99206.40;;;13.60
67353;BMP180;54238;52.278;21.056;2023-04-25T00:53:30;99212.00;;;13.60
67353;BMP180;54238;52.278;21.056;2023-04-25T00:55:59;99207.40;;;13.60
67353;BMP180;54238;52.278;21.056;2023-04-25T00:58:26;99205.60;;;13.60
67353;BMP180;54238;52.278;21.056;2023-04-25T01:00:57;99206.40;;;13.56
67353;BMP180;54238;52.278;21.056;2023-04-25T01:03:31;99204.20;;;13.50
67353;BMP180;54238;52.278;21.056;2023-04-25T01:06:04;99205.40;;;13.50
67353;BMP180;54238;52.278;21.056;2023-04-25T01:08:32;99201.80;;;13.50
67353;BMP180;54238;52.278;21.056;2023-04-25T01:11:02;99211.00;;;13.50
67353;BMP180;54238;52.278;21.056;2023-04-25T01:13:35;99207.00;;;13.50
67353;BMP180;54238;52.278;21.056;2023-04-25T01:16:03;99207.20;;;13.50
67353;BMP180;54238;52.278;21.056;2023-04-25T01:18:31;99207.40;;;13.40
67353;BMP180;54238;52.278;21.056;2023-04-25T01:21:15;99201.20;;;13.40
67353;BMP180;54238;52.278;21.056;2023-04-25T01:23:45;99206.80;;;13.30
67353;BMP180;54238;52.278;21.056;2023-04-25T01:26:15;99206.00;;;13.30
67353;BMP180;54238;52.278;21.056;2023-04-25T01:28:44;99208.80;;;13.30
67353;BMP180;54238;52.278;21.056;2023-04-25T01:31:12;99205.40;;;13.30
67353;BMP180;54238;52.278;21.056;2023-04-25T01:33:46;99205.60;;;13.20
67353;BMP180;54238;52.278;21.056;2023-04-25T01:36:23;99202.80;;;13.20
67353;BMP180;54238;52.278;21.056;2023-04-25T01:38:52;99206.20;;;13.20
67353;BMP180;54238;52.278;21.056;2023-04-25T01:41:19;99204.40;;;13.10
67353;BMP180;54238;52.278;21.056;2023-04-25T01:43:49;99206.40;;;13.10
67353;BMP180;54238;52.278;21.056;2023-04-25T01:46:17;99210.20;;;13.10
67353;BMP180;54238;52.278;21.056;2023-04-25T01:48:46;99210.40;;;13.10
67353;BMP180;54238;52.278;21.056;2023-04-25T01:51:14;99203.00;;;13.00
67353;BMP180;54238;52.278;21.056;2023-04-25T01:53:43;99199.20;;;13.00
67353;BMP180;54238;52.278;21.056;2023-04-25T01:56:13;99204.40;;;13.00
67353;BMP180;54238;52.278;21.056;2023-04-25T01:58:46;99201.40;;;12.98
67353;BMP180;54238;52.278;21.056;2023-04-25T02:01:15;99197.20;;;12.90
67353;BMP180;54238;52.278;21.056;2023-04-25T02:03:45;99199.80;;;12.90
67353;BMP180;54238;52.278;21.056;2023-04-25T02:06:12;99205.20;;;12.90
67353;BMP180;54238;52.278;21.056;2023-04-25T02:08:39;99199.00;;;12.90
67353;BMP180;54238;52.278;21.056;2023-04-25T02:11:09;99201.60;;;12.84
67353;BMP180;54238;52.278;21.056;2023-04-25T02:16:36;99201.20;;;12.72
67353;BMP180;54238;52.278;21.056;2023-04-25T02:19:04;99194.80;;;12.70
67353;BMP180;54238;52.278;21.056;2023-04-25T02:21:32;99199.40;;;12.70
67353;BMP180;54238;52.278;21.056;2023-04-25T02:24:03;99189.20;;;12.60
67353;BMP180;54238;52.278;21.056;2023-04-25T02:26:31;99192.20;;;12.60
67353;BMP180;54238;52.278;21.056;2023-04-25T02:28:58;99191.60;;;12.60
67353;BMP180;54238;52.278;21.056;2023-04-25T02:31:30;99187.00;;;12.50
67353;BMP180;54238;52.278;21.056;2023-04-25T02:34:04;99184.20;;;12.50
67353;BMP180;54238;52.278;21.056;2023-04-25T02:36:34;99178.20;;;12.50
67353;BMP180;54238;52.278;21.056;2023-04-25T02:39:02;99176.20;;;12.44
67353;BMP180;54238;52.278;21.056;2023-04-25T02:41:38;99170.60;;;12.44
67353;BMP180;54238;52.278;21.056;2023-04-25T02:44:05;99175.20;;;12.40
67353;BMP180;54238;52.278;21.056;2023-04-25T02:46:35;99176.60;;;12.40
67353;BMP180;54238;52.278;21.056;2023-04-25T02:49:02;99173.80;;;12.36
67353;BMP180;54238;52.278;21.056;2023-04-25T02:51:37;99174.00;;;12.32
67353;BMP180;54238;52.278;21.056;2023-04-25T02:54:06;99172.20;;;12.30
67353;BMP180;54238;52.278;21.056;2023-04-25T02:56:34;99175.20;;;12.30
67353;BMP180;54238;52.278;21.056;2023-04-25T02:59:05;99174.40;;;12.30
67353;BMP180;54238;52.278;21.056;2023-04-25T03:01:32;99175.40;;;12.26
67353;BMP180;54238;52.278;21.056;2023-04-25T03:04:02;99175.60;;;12.20
67353;BMP180;54238;52.278;21.056;2023-04-25T03:06:32;99169.80;;;12.20
67353;BMP180;54238;52.278;21.056;2023-04-25T03:09:04;99169.20;;;12.20
67353;BMP180;54238;52.278;21.056;2023-04-25T03:11:31;99164.20;;;12.18
67353;BMP180;54238;52.278;21.056;2023-04-25T03:14:00;99164.40;;;12.18
67353;BMP180;54238;52.278;21.056;2023-04-25T03:16:30;99165.00;;;12.18
67353;BMP180;54238;52.278;21.056;2023-04-25T03:18:57;99169.40;;;12.12
67353;BMP180;54238;52.278;21.056;2023-04-25T03:21:27;99170.20;;;12.10
67353;BMP180;54238;52.278;21.056;2023-04-25T03:23:54;99166.60;;;12.10
67353;BMP180;54238;52.278;21.056;2023-04-25T03:26:24;99166.20;;;12.10
67353;BMP180;54238;52.278;21.056;2023-04-25T03:28:56;99169.80;;;12.10
67353;BMP180;54238;52.278;21.056;2023-04-25T03:31:26;99177.80;;;12.10
67353;BMP180;54238;52.278;21.056;2023-04-25T03:33:53;99178.20;;;12.10
67353;BMP180;54238;52.278;21.056;2023-04-25T03:36:21;99180.40;;;12.18
67353;BMP180;54238;52.278;21.056;2023-04-25T03:38:51;99179.00;;;12.20
67353;BMP180;54238;52.278;21.056;2023-04-25T03:41:18;99178.20;;;12.20
67353;BMP180;54238;52.278;21.056;2023-04-25T03:43:48;99180.80;;;12.20
67353;BMP180;54238;52.278;21.056;2023-04-25T03:46:16;99188.00;;;12.20
67353;BMP180;54238;52.278;21.056;2023-04-25T03:48:43;99193.20;;;12.20
67353;BMP180;54238;52.278;21.056;2023-04-25T03:51:11;99196.60;;;12.20
67353;BMP180;54238;52.278;21.056;2023-04-25T03:53:43;99188.40;;;12.20
67353;BMP180;54238;52.278;21.056;2023-04-25T03:56:12;99193.00;;;12.20
67353;BMP180;54238;52.278;21.056;2023-04-25T03:58:39;99197.60;;;12.20
67353;BMP180;54238;52.278;21.056;2023-04-25T04:01:11;99198.20;;;12.20
67353;BMP180;54238;52.278;21.056;2023-04-25T04:03:41;99199.80;;;12.20
67353;BMP180;54238;52.278;21.056;2023-04-25T04:06:09;99203.60;;;12.22
67353;BMP180;54238;52.278;21.056;2023-04-25T04:08:44;99200.20;;;12.30
67353;BMP180;54238;52.278;21.056;2023-04-25T04:11:16;99205.80;;;12.30
67353;BMP180;54238;52.278;21.056;2023-04-25T04:13:46;99209.60;;;12.30
67353;BMP180;54238;52.278;21.056;2023-04-25T04:16:16;99209.40;;;12.30
67353;BMP180;54238;52.278;21.056;2023-04-25T04:18:47;99213.20;;;12.30
67353;BMP180;54238;52.278;21.056;2023-04-25T04:21:14;99216.20;;;12.32
67353;BMP180;54238;52.278;21.056;2023-04-25T04:23:43;99215.20;;;12.40
67353;BMP180;54238;52.278;21.056;2023-04-25T04:26:16;99214.20;;;12.40
67353;BMP180;54238;52.278;21.056;2023-04-25T04:28:43;99214.80;;;12.40
67353;BMP180;54238;52.278;21.056;2023-04-25T04:31:16;99216.00;;;12.40
67353;BMP180;54238;52.278;21.056;2023-04-25T04:33:46;99217.40;;;12.40
67353;BMP180;54238;52.278;21.056;2023-04-25T04:36:19;99221.40;;;12.40
67353;BMP180;54238;52.278;21.056;2023-04-25T04:38:55;99212.80;;;12.40
67353;BMP180;54238;52.278;21.056;2023-04-25T04:41:25;99222.20;;;12.48
67353;BMP180;54238;52.278;21.056;2023-04-25T04:43:52;99218.20;;;12.50
67353;BMP180;54238;52.278;21.056;2023-04-25T04:46:25;99219.60;;;12.50
67353;BMP180;54238;52.278;21.056;2023-04-25T04:48:54;99218.20;;;12.50
67353;BMP180;54238;52.278;21.056;2023-04-25T04:51:25;99217.40;;;12.58
67353;BMP180;54238;52.278;21.056;2023-04-25T04:53:54;99225.80;;;12.60
67353;BMP180;54238;52.278;21.056;2023-04-25T04:56:30;99224.80;;;12.60
67353;BMP180;54238;52.278;21.056;2023-04-25T04:59:02;99223.00;;;12.60
67353;BMP180;54238;52.278;21.056;2023-04-25T05:01:30;99219.60;;;12.60
67353;BMP180;54238;52.278;21.056;2023-04-25T05:03:57;99229.20;;;12.60
67353;BMP180;54238;52.278;21.056;2023-04-25T05:06:27;99223.80;;;12.60
67353;BMP180;54238;52.278;21.056;2023-04-25T05:08:56;99225.20;;;12.64
67353;BMP180;54238;52.278;21.056;2023-04-25T05:11:29;99221.40;;;12.70
67353;BMP180;54238;52.278;21.056;2023-04-25T05:13:56;99229.40;;;12.70
67353;BMP180;54238;52.278;21.056;2023-04-25T05:16:25;99232.40;;;12.70
67353;BMP180;54238;52.278;21.056;2023-04-25T05:18:52;99225.60;;;12.70
67353;BMP180;54238;52.278;21.056;2023-04-25T05:21:22;99228.00;;;12.70
67353;BMP180;54238;52.278;21.056;2023-04-25T05:23:54;99227.40;;;12.66
67353;BMP180;54238;52.278;21.056;2023-04-25T05:26:25;99233.80;;;12.60
67353;BMP180;54238;52.278;21.056;2023-04-25T05:28:57;99237.00;;;12.60
67353;BMP180;54238;52.278;21.056;2023-04-25T05:31:27;99231.20;;;12.54
67353;BMP180;54238;52.278;21.056;2023-04-25T05:33:57;99231.60;;;12.50
67353;BMP180;54238;52.278;21.056;2023-04-25T05:36:30;99231.20;;;12.50
67353;BMP180;54238;52.278;21.056;2023-04-25T05:38:59;99240.00;;;12.50
67353;BMP180;54238;52.278;21.056;2023-04-25T05:41:28;99241.40;;;12.50
67353;BMP180;54238;52.278;21.056;2023-04-25T05:43:55;99247.40;;;12.40
67353;BMP180;54238;52.278;21.056;2023-04-25T05:46:24;99250.40;;;12.40
67353;BMP180;54238;52.278;21.056;2023-04-25T05:48:54;99249.00;;;12.40
67353;BMP180;54238;52.278;21.056;2023-04-25T05:51:23;99244.00;;;12.40
67353;BMP180;54238;52.278;21.056;2023-04-25T05:53:53;99241.00;;;12.30
67353;BMP180;54238;52.278;21.056;2023-04-25T05:56:22;99245.80;;;12.30
67353;BMP180;54238;52.278;21.056;2023-04-25T05:58:49;99241.60;;;12.30
67353;BMP180;54238;52.278;21.056;2023-04-25T06:01:19;99244.60;;;12.30
67353;BMP180;54238;52.278;21.056;2023-04-25T06:03:49;99242.20;;;12.30
67353;BMP180;54238;52.278;21.056;2023-04-25T06:06:18;99249.80;;;12.32
67353;BMP180;54238;52.278;21.056;2023-04-25T06:08:48;99248.80;;;12.40
67353;BMP180;54238;52.278;21.056;2023-04-25T06:11:18;99251.60;;;12.30
67353;BMP180;54238;52.278;21.056;2023-04-25T06:13:52;99248.20;;;12.30
67353;BMP180;54238;52.278;21.056;2023-04-25T06:16:22;99251.00;;;12.40
67353;BMP180;54238;52.278;21.056;2023-04-25T06:18:51;99253.20;;;12.40
67353;BMP180;54238;52.278;21.056;2023-04-25T06:21:20;99257.80;;;12.40
67353;BMP180;54238;52.278;21.056;2023-04-25T06:23:47;99261.40;;;12.40
67353;BMP180;54238;52.278;21.056;2023-04-25T06:26:35;99254.60;;;12.40
67353;BMP180;54238;52.278;21.056;2023-04-25T06:29:03;99264.00;;;12.38
67353;BMP180;54238;52.278;21.056;2023-04-25T06:31:40;99263.40;;;12.30
67353;BMP180;54238;52.278;21.056;2023-04-25T06:34:09;99272.60;;;12.20
67353;BMP180;54238;52.278;21.056;2023-04-25T06:36:41;99272.60;;;12.16
67353;BMP180;54238;52.278;21.056;2023-04-25T06:39:13;99277.00;;;12.10
67353;BMP180;54238;52.278;21.056;2023-04-25T06:42:04;99280.40;;;12.10
67353;BMP180;54238;52.278;21.056;2023-04-25T06:44:33;99290.00;;;12.00
67353;BMP180;54238;52.278;21.056;2023-04-25T06:47:00;99312.00;;;12.00
67353;BMP180;54238;52.278;21.056;2023-04-25T06:49:28;99315.80;;;11.90
67353;BMP180;54238;52.278;21.056;2023-04-25T06:51:55;99314.60;;;11.90
67353;BMP180;54238;52.278;21.056;2023-04-25T06:54:22;99306.40;;;11.80
67353;BMP180;54238;52.278;21.056;2023-04-25T06:56:53;99313.60;;;11.80
67353;BMP180;54238;52.278;21.056;2023-04-25T06:59:23;99307.20;;;11.80
67353;BMP180;54238;52.278;21.056;2023-04-25T07:01:55;99304.40;;;11.70
67353;BMP180;54238;52.278;21.056;2023-04-25T07:04:22;99280.80;;;11.70
67353;BMP180;54238;52.278;21.056;2023-04-25T07:06:57;99267.80;;;11.68
67353;BMP180;54238;52.278;21.056;2023-04-25T07:09:30;99266.60;;;11.60
67353;BMP180;54238;52.278;21.056;2023-04-25T07:12:01;99274.40;;;11.60
67353;BMP180;54238;52.278;21.056;2023-04-25T07:14:28;99276.40;;;11.60
67353;BMP180;54238;52.278;21.056;2023-04-25T07:16:56;99280.80;;;11.70
67353;BMP180;54238;52.278;21.056;2023-04-25T07:19:24;99281.20;;;11.80
67353;BMP180;54238;52.278;21.056;2023-04-25T07:21:56;99282.80;;;11.90
67353;BMP180;54238;52.278;21.056;2023-04-25T07:24:25;99283.20;;;12.02
67353;BMP180;54238;52.278;21.056;2023-04-25T07:26:58;99289.80;;;12.20
67353;BMP180;54238;52.278;21.056;2023-04-25T07:29:30;99292.40;;;12.30
67353;BMP180;54238;52.278;21.056;2023-04-25T07:32:08;99291.20;;;12.30
67353;BMP180;54238;52.278;21.056;2023-04-25T07:34:37;99287.40;;;12.40
67353;BMP180;54238;52.278;21.056;2023-04-25T07:37:09;99299.20;;;12.40
67353;BMP180;54238;52.278;21.056;2023-04-25T07:39:36;99297.80;;;12.36
67353;BMP180;54238;52.278;21.056;2023-04-25T07:42:06;99293.60;;;12.30
67353;BMP180;54238;52.278;21.056;2023-04-25T07:44:35;99292.80;;;12.30
67353;BMP180;54238;52.278;21.056;2023-04-25T07:47:13;99295.80;;;12.24
67353;BMP180;54238;52.278;21.056;2023-04-25T07:49:43;99292.60;;;12.20
67353;BMP180;54238;52.278;21.056;2023-04-25T07:52:12;99295.80;;;12.30
67353;BMP180;54238;52.278;21.056;2023-04-25T07:54:43;99297.00;;;12.30
67353;BMP180;54238;52.278;21.056;2023-04-25T07:57:10;99297.20;;;12.40
67353;BMP180;54238;52.278;21.056;2023-04-25T07:59:40;99302.80;;;12.40
67353;BMP180;54238;52.278;21.056;2023-04-25T08:02:10;99305.80;;;12.40
67353;BMP180;54238;52.278;21.056;2023-04-25T08:04:38;99296.20;;;12.40
67353;BMP180;54238;52.278;21.056;2023-04-25T08:07:05;99296.80;;;12.40
67353;BMP180;54238;52.278;21.056;2023-04-25T08:09:35;99299.20;;;12.40
67353;BMP180;54238;52.278;21.056;2023-04-25T08:12:04;99300.00;;;12.40
67353;BMP180;54238;52.278;21.056;2023-04-25T08:14:39;99308.80;;;12.46
67353;BMP180;54238;52.278;21.056;2023-04-25T08:17:07;99307.60;;;12.48
67353;BMP180;54238;52.278;21.056;2023-04-25T08:19:34;99310.60;;;12.50
67353;BMP180;54238;52.278;21.056;2023-04-25T08:22:03;99317.60;;;12.60
67353;BMP180;54238;52.278;21.056;2023-04-25T08:24:45;99312.60;;;12.52
67353;BMP180;54238;52.278;21.056;2023-04-25T08:27:12;99319.40;;;12.58
67353;BMP180;54238;52.278;21.056;2023-04-25T08:30:12;99319.00;;;12.50
67353;BMP180;54238;52.278;21.056;2023-04-25T08:32:44;99321.40;;;12.50
67353;BMP180;54238;52.278;21.056;2023-04-25T08:35:16;99324.00;;;12.60
67353;BMP180;54238;52.278;21.056;2023-04-25T08:37:48;99326.00;;;12.70
67353;BMP180;54238;52.278;21.056;2023-04-25T08:40:16;99322.00;;;12.90
67353;BMP180;54238;52.278;21.056;2023-04-25T08:42:45;99326.80;;;13.00
67353;BMP180;54238;52.278;21.056;2023-04-25T08:45:15;99334.60;;;13.00
67353;BMP180;54238;52.278;21.056;2023-04-25T08:47:46;99332.20;;;13.00
67353;BMP180;54238;52.278;21.056;2023-04-25T08:50:17;99335.20;;;13.00
67353;BMP180;54238;52.278;21.056;2023-04-25T08:52:59;99335.40;;;12.90
67353;BMP180;54238;52.278;21.056;2023-04-25T08:55:43;99341.20;;;12.90
67353;BMP180;54238;52.278;21.056;2023-04-25T08:58:15;99347.80;;;12.80
67353;BMP180;54238;52.278;21.056;2023-04-25T09:00:51;99346.40;;;12.60
67353;BMP180;54238;52.278;21.056;2023-04-25T09:03:21;99351.00;;;12.60
67353;BMP180;54238;52.278;21.056;2023-04-25T09:05:55;99352.20;;;12.50
67353;BMP180;54238;52.278;21.056;2023-04-25T09:08:24;99355.40;;;12.50
67353;BMP180;54238;52.278;21.056;2023-04-25T09:10:52;99357.20;;;12.50
67353;BMP180;54238;52.278;21.056;2023-04-25T09:13:27;99352.20;;;12.50
67353;BMP180;54238;52.278;21.056;2023-04-25T09:16:01;99352.00;;;12.50
67353;BMP180;54238;52.278;21.056;2023-04-25T09:18:33;99356.40;;;12.50
67353;BMP180;54238;52.278;21.056;2023-04-25T09:24:09;99360.20;;;12.40
67353;BMP180;54238;52.278;21.056;2023-04-25T09:26:39;99362.40;;;12.30
67353;BMP180;54238;52.278;21.056;2023-04-25T09:29:09;99363.60;;;12.28
67353;BMP180;54238;52.278;21.056;2023-04-25T09:31:37;99367.20;;;12.20
67353;BMP180;54238;52.278;21.056;2023-04-25T09:34:08;99368.80;;;12.10
67353;BMP180;54238;52.278;21.056;2023-04-25T09:36:47;99376.80;;;11.90
67353;BMP180;54238;52.278;21.056;2023-04-25T09:39:17;99376.60;;;11.80
67353;BMP180;54238;52.278;21.056;2023-04-25T09:41:46;99383.00;;;11.70
67353;BMP180;54238;52.278;21.056;2023-04-25T09:44:25;99387.60;;;11.70
67353;BMP180;54238;52.278;21.056;2023-04-25T09:46:54;99386.80;;;11.70
67353;BMP180;54238;52.278;21.056;2023-04-25T09:49:22;99388.00;;;11.80
67353;BMP180;54238;52.278;21.056;2023-04-25T09:52:02;99396.20;;;11.80
67353;BMP180;54238;52.278;21.056;2023-04-25T09:54:31;99394.00;;;11.70
67353;BMP180;54238;52.278;21.056;2023-04-25T09:59:53;99395.00;;;11.70
67353;BMP180;54238;52.278;21.056;2023-04-25T10:02:35;99392.80;;;11.68
67353;BMP180;54238;52.278;21.056;2023-04-25T10:05:08;99399.80;;;11.70
67353;BMP180;54238;52.278;21.056;2023-04-25T10:07:38;99400.20;;;11.68
67353;BMP180;54238;52.278;21.056;2023-04-25T10:10:08;99402.40;;;11.60
67353;BMP180;54238;52.278;21.056;2023-04-25T10:12:37;99395.60;;;11.60
67353;BMP180;54238;52.278;21.056;2023-04-25T10:15:22;99398.40;;;11.60
67353;BMP180;54238;52.278;21.056;2023-04-25T10:18:22;99399.20;;;11.50
67353;BMP180;54238;52.278;21.056;2023-04-25T10:20:52;99394.40;;;11.56
67353;BMP180;54238;52.278;21.056;2023-04-25T10:23:23;99401.60;;;11.50
67353;BMP180;54238;52.278;21.056;2023-04-25T10:25:54;99397.60;;;11.50
67353;BMP180;54238;52.278;21.056;2023-04-25T10:28:26;99394.60;;;11.50
67353;BMP180;54238;52.278;21.056;2023-04-25T10:31:04;99393.40;;;11.50
67353;BMP180;54238;52.278;21.056;2023-04-25T10:33:40;99397.80;;;11.50
67353;BMP180;54238;52.278;21.056;2023-04-25T10:36:15;99395.40;;;11.50
67353;BMP180;54238;52.278;21.056;2023-04-25T10:38:48;99403.20;;;11.50
67353;BMP180;54238;52.278;21.056;2023-04-25T10:41:21;99403.80;;;11.50
67353;BMP180;54238;52.278;21.056;2023-04-25T10:44:04;99405.00;;;11.50
67353;BMP180;54238;52.278;21.056;2023-04-25T10:46:35;99399.60;;;11.50
67353;BMP180;54238;52.278;21.056;2023-04-25T10:49:03;99402.60;;;11.50
67353;BMP180;54238;52.278;21.056;2023-04-25T10:51:34;99402.40;;;11.50
67353;BMP180;54238;52.278;21.056;2023-04-25T10:54:07;99400.20;;;11.50
67353;BMP180;54238;52.278;21.056;2023-04-25T10:56:48;99401.20;;;11.50
67353;BMP180;54238;52.278;21.056;2023-04-25T10:59:18;99405.60;;;11.60
67353;BMP180;54238;52.278;21.056;2023-04-25T11:01:51;99404.60;;;11.70
67353;BMP180;54238;52.278;21.056;2023-04-25T11:04:32;99403.00;;;11.70
67353;BMP180;54238;52.278;21.056;2023-04-25T11:09:45;99403.60;;;11.80
67353;BMP180;54238;52.278;21.056;2023-04-25T11:12:12;99412.20;;;11.80
67353;BMP180;54238;52.278;21.056;2023-04-25T11:14:46;99413.60;;;11.80
67353;BMP180;54238;52.278;21.056;2023-04-25T11:17:13;99412.00;;;11.88
67353;BMP180;54238;52.278;21.056;2023-04-25T11:19:42;99416.40;;;11.90
67353;BMP180;54238;52.278;21.056;2023-04-25T11:22:14;99412.60;;;11.90
67353;BMP180;54238;52.278;21.056;2023-04-25T11:24:44;99409.00;;;11.90
67353;BMP180;54238;52.278;21.056;2023-04-25T11:27:25;99405.20;;;11.88
67353;BMP180;54238;52.278;21.056;2023-04-25T11:29:53;99406.00;;;11.90
67353;BMP180;54238;52.278;21.056;2023-04-25T11:32:28;99405.40;;;11.90
67353;BMP180;54238;52.278;21.056;2023-04-25T11:34:57;99401.60;;;11.90
67353;BMP180;54238;52.278;21.056;2023-04-25T11:37:24;99403.20;;;12.00
67353;BMP180;54238;52.278;21.056;2023-04-25T11:39:51;99406.20;;;12.10
67353;BMP180;54238;52.278;21.056;2023-04-25T11:42:21;99403.40;;;12.20
67353;BMP180;54238;52.278;21.056;2023-04-25T11:44:48;99408.60;;;12.20
67353;BMP180;54238;52.278;21.056;2023-04-25T11:47:16;99409.00;;;12.20
67353;BMP180;54238;52.278;21.056;2023-04-25T11:49:48;99408.40;;;12.26
67353;BMP180;54238;52.278;21.056;2023-04-25T11:52:16;99408.60;;;12.20
67353;BMP180;54238;52.278;21.056;2023-04-25T11:54:45;99404.40;;;12.20
67353;BMP180;54238;52.278;21.056;2023-04-25T11:57:13;99406.80;;;12.20
67353;BMP180;54238;52.278;21.056;2023-04-25T11:59:43;99400.20;;;12.10
67353;BMP180;54238;52.278;21.056;2023-04-25T12:02:25;99393.40;;;12.00
67353;BMP180;54238;52.278;21.056;2023-04-25T12:04:59;99400.80;;;11.90
67353;BMP180;54238;52.278;21.056;2023-04-25T12:07:29;99400.00;;;12.00
67353;BMP180;54238;52.278;21.056;2023-04-25T12:09:59;99399.60;;;12.00
67353;BMP180;54238;52.278;21.056;2023-04-25T12:12:27;99400.60;;;12.00
67353;BMP180;54238;52.278;21.056;2023-04-25T12:15:12;99392.60;;;12.00
67353;BMP180;54238;52.278;21.056;2023-04-25T12:17:47;99395.20;;;12.00
67353;BMP180;54238;52.278;21.056;2023-04-25T12:20:20;99393.00;;;12.00
67353;BMP180;54238;52.278;21.056;2023-04-25T12:22:53;99394.40;;;12.10
67353;BMP180;54238;52.278;21.056;2023-04-25T12:25:43;99395.20;;;12.10
67353;BMP180;54238;52.278;21.056;2023-04-25T12:28:21;99398.60;;;12.10
67353;BMP180;54238;52.278;21.056;2023-04-25T12:33:38;99398.40;;;12.20
67353;BMP180;54238;52.278;21.056;2023-04-25T12:36:11;99393.60;;;12.20
67353;BMP180;54238;52.278;21.056;2023-04-25T12:38:45;99398.60;;;12.20
67353;BMP180;54238;52.278;21.056;2023-04-25T12:41:12;99398.80;;;12.28
67353;BMP180;54238;52.278;21.056;2023-04-25T12:43:46;99392.40;;;12.24
67353;BMP180;54238;52.278;21.056;2023-04-25T12:46:13;99393.80;;;12.30
67353;BMP180;54238;52.278;21.056;2023-04-25T12:48:40;99396.20;;;12.40
67353;BMP180;54238;52.278;21.056;2023-04-25T12:51:10;99404.40;;;12.26
67353;BMP180;54238;52.278;21.056;2023-04-25T12:53:40;99395.00;;;12.10
67353;BMP180;54238;52.278;21.056;2023-04-25T12:56:10;99390.60;;;12.10
67353;BMP180;54238;52.278;21.056;2023-04-25T12:58:37;99387.60;;;12.08
67353;BMP180;54238;52.278;21.056;2023-04-25T13:01:07;99390.20;;;12.10
67353;BMP180;54238;52.278;21.056;2023-04-25T13:03:39;99384.60;;;12.10
67353;BMP180;54238;52.278;21.056;2023-04-25T13:06:12;99381.80;;;12.00
67353;BMP180;54238;52.278;21.056;2023-04-25T13:08:42;99384.80;;;12.00
67353;BMP180;54238;52.278;21.056;2023-04-25T13:11:12;99382.60;;;12.00
67353;BMP180;54238;52.278;21.056;2023-04-25T13:13:41;99382.80;;;12.00
67353;BMP180;54238;52.278;21.056;2023-04-25T13:16:12;99381.40;;;11.90
67353;BMP180;54238;52.278;21.056;2023-04-25T13:18:41;99379.00;;;11.80
67353;BMP180;54238;52.278;21.056;2023-04-25T13:21:11;99382.20;;;11.80
67353;BMP180;54238;52.278;21.056;2023-04-25T13:23:40;99379.00;;;11.70
67353;BMP180;54238;52.278;21.056;2023-04-25T13:26:12;99378.00;;;11.78
67353;BMP180;54238;52.278;21.056;2023-04-25T13:28:41;99377.80;;;11.80
67353;BMP180;54238;52.278;21.056;2023-04-25T13:31:16;99371.40;;;11.80
67353;BMP180;54238;52.278;21.056;2023-04-25T13:33:46;99371.80;;;11.88
67353;BMP180;54238;52.278;21.056;2023-04-25T13:36:13;99371.40;;;11.94
67353;BMP180;54238;52.278;21.056;2023-04-25T13:38:41;99375.40;;;11.92
67353;BMP180;54238;52.278;21.056;2023-04-25T13:41:15;99376.60;;;12.00
67353;BMP180;54238;52.278;21.056;2023-04-25T13:43:49;99378.00;;;12.00
67353;BMP180;54238;52.278;21.056;2023-04-25T13:46:16;99375.00;;;12.00
67353;BMP180;54238;52.278;21.056;2023-04-25T13:48:43;99369.60;;;12.06
67353;BMP180;54238;52.278;21.056;2023-04-25T13:51:14;99375.20;;;12.10
67353;BMP180;54238;52.278;21.056;2023-04-25T13:53:44;99375.80;;;12.10
67353;BMP180;54238;52.278;21.056;2023-04-25T13:56:14;99375.60;;;12.10
67353;BMP180;54238;52.278;21.056;2023-04-25T13:58:44;99375.20;;;12.10
67353;BMP180;54238;52.278;21.056;2023-04-25T14:01:11;99381.40;;;12.16
67353;BMP180;54238;52.278;21.056;2023-04-25T14:03:40;99381.00;;;12.16
67353;BMP180;54238;52.278;21.056;2023-04-25T14:06:12;99380.80;;;12.10
67353;BMP180;54238;52.278;21.056;2023-04-25T14:08:42;99372.80;;;12.00
67353;BMP180;54238;52.278;21.056;2023-04-25T14:11:12;99376.60;;;11.96
67353;BMP180;54238;52.278;21.056;2023-04-25T14:13:41;99376.40;;;11.98
67353;BMP180;54238;52.278;21.056;2023-04-25T14:16:11;99370.60;;;12.00
67353;BMP180;54238;52.278;21.056;2023-04-25T14:18:40;99375.20;;;12.00
67353;BMP180;54238;52.278;21.056;2023-04-25T14:21:08;99376.00;;;12.00
67353;BMP180;54238;52.278;21.056;2023-04-25T14:23:39;99377.20;;;12.10
67353;BMP180;54238;52.278;21.056;2023-04-25T14:26:06;99374.60;;;12.10
67353;BMP180;54238;52.278;21.056;2023-04-25T14:28:33;99372.80;;;12.04
67353;BMP180;54238;52.278;21.056;2023-04-25T14:31:02;99374.00;;;12.00